sensor_id;sensor_type;location;lat;lon;timestamp;temperature;humidity
53045;DHT22;38930;52.766;6.884;2022-10-31T00:02:05;12.20;99.90
53045;DHT22;38930;52.766;6.884;2022-10-31T00:04:30;12.50;99.90
53045;DHT22;38930;52.766;6.884;2022-10-31T00:06:56;12.30;99.90
53045;DHT22;38930;52.766;6.884;2022-10-31T00:09:21;12.30;99.90
53045;DHT22;38930;52.766;6.884;2022-10-31T00:11:47;12.00;99.90
53045;DHT22;38930;52.766;6.884;2022-10-31T00:14:13;12.00;99.90
53045;DHT22;38930;52.766;6.884;2022-10-31T00:16:38;12.00;99.90
53045;DHT22;38930;52.766;6.884;2022-10-31T00:19:06;11.90;99.90
53045;DHT22;38930;52.766;6.884;2022-10-31T00:21:33;11.90;99.90
53045;DHT22;38930;52.766;6.884;2022-10-31T00:23:59;11.90;99.90
53045;DHT22;38930;52.766;6.884;2022-10-31T00:26:27;11.80;99.90
53045;DHT22;38930;52.766;6.884;2022-10-31T00:28:53;11.80;99.90
53045;DHT22;38930;52.766;6.884;2022-10-31T00:31:18;11.70;99.90
53045;DHT22;38930;52.766;6.884;2022-10-31T00:33:44;11.70;99.90
53045;DHT22;38930;52.766;6.884;2022-10-31T00:36:15;11.70;99.90
53045;DHT22;38930;52.766;6.884;2022-10-31T00:38:42;11.70;99.90
53045;DHT22;38930;52.766;6.884;2022-10-31T00:41:09;11.60;99.90
53045;DHT22;38930;52.766;6.884;2022-10-31T00:43:35;11.60;99.90
53045;DHT22;38930;52.766;6.884;2022-10-31T00:46:00;11.60;99.90
53045;DHT22;38930;52.766;6.884;2022-10-31T00:48:26;11.60;99.90
53045;DHT22;38930;52.766;6.884;2022-10-31T00:50:52;11.60;99.90
53045;DHT22;38930;52.766;6.884;2022-10-31T00:53:17;11.60;99.90
53045;DHT22;38930;52.766;6.884;2022-10-31T00:55:43;11.60;99.90
53045;DHT22;38930;52.766;6.884;2022-10-31T00:58:08;11.60;99.90
53045;DHT22;38930;52.766;6.884;2022-10-31T01:00:34;11.50;99.90
53045;DHT22;38930;52.766;6.884;2022-10-31T01:03:00;11.70;99.90
53045;DHT22;38930;52.766;6.884;2022-10-31T01:05:25;11.50;99.90
53045;DHT22;38930;52.766;6.884;2022-10-31T01:07:51;11.40;99.90
53045;DHT22;38930;52.766;6.884;2022-10-31T01:10:17;11.80;99.90
53045;DHT22;38930;52.766;6.884;2022-10-31T01:12:45;11.40;99.90
53045;DHT22;38930;52.766;6.884;2022-10-31T01:15:14;11.80;99.90
53045;DHT22;38930;52.766;6.884;2022-10-31T01:17:40;11.30;99.90
53045;DHT22;38930;52.766;6.884;2022-10-31T01:20:07;11.30;99.90
53045;DHT22;38930;52.766;6.884;2022-10-31T01:22:33;11.30;99.90
53045;DHT22;38930;52.766;6.884;2022-10-31T01:24:59;11.30;99.90
53045;DHT22;38930;52.766;6.884;2022-10-31T01:27:25;11.30;99.90
53045;DHT22;38930;52.766;6.884;2022-10-31T01:29:50;11.30;99.90
53045;DHT22;38930;52.766;6.884;2022-10-31T01:32:16;11.30;99.90
53045;DHT22;38930;52.766;6.884;2022-10-31T01:34:42;11.40;99.90
53045;DHT22;38930;52.766;6.884;2022-10-31T01:37:07;11.30;99.90
53045;DHT22;38930;52.766;6.884;2022-10-31T01:39:33;11.30;99.90
53045;DHT22;38930;52.766;6.884;2022-10-31T01:41:58;11.30;99.90
53045;DHT22;38930;52.766;6.884;2022-10-31T01:47:04;11.70;99.90
53045;DHT22;38930;52.766;6.884;2022-10-31T01:49:40;11.30;99.90
53045;DHT22;38930;52.766;6.884;2022-10-31T01:52:12;11.30;99.90
53045;DHT22;38930;52.766;6.884;2022-10-31T01:54:48;11.30;99.90
53045;DHT22;38930;52.766;6.884;2022-10-31T01:57:18;11.30;99.90
53045;DHT22;38930;52.766;6.884;2022-10-31T01:59:48;11.50;99.90
53045;DHT22;38930;52.766;6.884;2022-10-31T02:02:15;11.30;99.90
53045;DHT22;38930;52.766;6.884;2022-10-31T02:04:42;11.30;99.90
53045;DHT22;38930;52.766;6.884;2022-10-31T02:07:17;11.20;99.90
53045;DHT22;38930;52.766;6.884;2022-10-31T02:09:47;11.20;99.90
53045;DHT22;38930;52.766;6.884;2022-10-31T02:12:15;11.30;99.90
53045;DHT22;38930;52.766;6.884;2022-10-31T02:14:42;11.10;99.90
53045;DHT22;38930;52.766;6.884;2022-10-31T02:17:08;11.10;99.90
53045;DHT22;38930;52.766;6.884;2022-10-31T02:20:04;11.00;99.90
53045;DHT22;38930;52.766;6.884;2022-10-31T02:30:41;10.90;99.90
53045;DHT22;38930;52.766;6.884;2022-10-31T02:33:30;11.10;99.90
53045;DHT22;38930;52.766;6.884;2022-10-31T02:36:13;10.80;99.90
53045;DHT22;38930;52.766;6.884;2022-10-31T02:44:30;10.70;99.90
53045;DHT22;38930;52.766;6.884;2022-10-31T02:47:02;10.70;99.90
53045;DHT22;38930;52.766;6.884;2022-10-31T02:49:45;10.70;99.90
53045;DHT22;38930;52.766;6.884;2022-10-31T02:52:29;10.70;99.90
53045;DHT22;38930;52.766;6.884;2022-10-31T02:54:56;10.70;99.90
53045;DHT22;38930;52.766;6.884;2022-10-31T02:57:25;10.70;99.90
53045;DHT22;38930;52.766;6.884;2022-10-31T03:00:01;10.60;99.90
53045;DHT22;38930;52.766;6.884;2022-10-31T03:02:56;10.50;99.90
53045;DHT22;38930;52.766;6.884;2022-10-31T03:07:57;10.50;99.90
53045;DHT22;38930;52.766;6.884;2022-10-31T03:10:39;10.40;99.90
53045;DHT22;38930;52.766;6.884;2022-10-31T03:16:08;10.30;99.90
53045;DHT22;38930;52.766;6.884;2022-10-31T03:18:57;10.30;99.90
53045;DHT22;38930;52.766;6.884;2022-10-31T03:21:33;10.20;99.90
53045;DHT22;38930;52.766;6.884;2022-10-31T03:24:02;10.50;99.90
53045;DHT22;38930;52.766;6.884;2022-10-31T03:26:29;10.10;99.90
53045;DHT22;38930;52.766;6.884;2022-10-31T03:29:00;10.00;99.90
53045;DHT22;38930;52.766;6.884;2022-10-31T03:31:32;10.00;99.90
53045;DHT22;38930;52.766;6.884;2022-10-31T03:34:00;10.00;99.90
53045;DHT22;38930;52.766;6.884;2022-10-31T03:36:30;10.00;99.90
53045;DHT22;38930;52.766;6.884;2022-10-31T03:39:01;9.90;99.90
53045;DHT22;38930;52.766;6.884;2022-10-31T03:41:30;9.90;99.90
53045;DHT22;38930;52.766;6.884;2022-10-31T03:44:02;9.80;99.90
53045;DHT22;38930;52.766;6.884;2022-10-31T03:46:30;9.70;99.90
53045;DHT22;38930;52.766;6.884;2022-10-31T03:48:57;9.70;99.90
53045;DHT22;38930;52.766;6.884;2022-10-31T03:51:25;9.70;99.90
53045;DHT22;38930;52.766;6.884;2022-10-31T03:53:55;9.70;99.90
53045;DHT22;38930;52.766;6.884;2022-10-31T03:56:49;9.70;99.90
53045;DHT22;38930;52.766;6.884;2022-10-31T03:59:17;9.60;99.90
53045;DHT22;38930;52.766;6.884;2022-10-31T04:01:47;9.50;99.90
53045;DHT22;38930;52.766;6.884;2022-10-31T04:04:14;9.50;99.90
53045;DHT22;38930;52.766;6.884;2022-10-31T04:06:42;9.40;99.90
53045;DHT22;38930;52.766;6.884;2022-10-31T04:09:10;9.50;99.90
53045;DHT22;38930;52.766;6.884;2022-10-31T04:11:44;9.40;99.90
53045;DHT22;38930;52.766;6.884;2022-10-31T04:14:11;9.40;99.90
53045;DHT22;38930;52.766;6.884;2022-10-31T04:16:42;9.40;99.90
53045;DHT22;38930;52.766;6.884;2022-10-31T04:19:09;9.30;99.90
53045;DHT22;38930;52.766;6.884;2022-10-31T04:21:35;9.40;99.90
53045;DHT22;38930;52.766;6.884;2022-10-31T04:24:01;9.20;99.90
53045;DHT22;38930;52.766;6.884;2022-10-31T04:26:26;9.20;99.90
53045;DHT22;38930;52.766;6.884;2022-10-31T04:28:52;9.20;99.90
53045;DHT22;38930;52.766;6.884;2022-10-31T04:31:18;9.10;99.90
53045;DHT22;38930;52.766;6.884;2022-10-31T04:33:44;9.20;99.90
53045;DHT22;38930;52.766;6.884;2022-10-31T04:36:09;9.10;99.90
53045;DHT22;38930;52.766;6.884;2022-10-31T04:38:35;9.10;99.90
53045;DHT22;38930;52.766;6.884;2022-10-31T04:41:00;9.10;99.90
53045;DHT22;38930;52.766;6.884;2022-10-31T04:43:26;9.10;99.90
53045;DHT22;38930;52.766;6.884;2022-10-31T04:45:52;9.00;99.90
53045;DHT22;38930;52.766;6.884;2022-10-31T04:48:17;9.30;99.90
53045;DHT22;38930;52.766;6.884;2022-10-31T04:50:43;8.90;99.90
53045;DHT22;38930;52.766;6.884;2022-10-31T04:53:08;8.90;99.90
53045;DHT22;38930;52.766;6.884;2022-10-31T04:55:35;8.90;99.90
53045;DHT22;38930;52.766;6.884;2022-10-31T04:58:01;8.80;99.90
53045;DHT22;38930;52.766;6.884;2022-10-31T05:00:27;8.90;99.90
53045;DHT22;38930;52.766;6.884;2022-10-31T05:02:55;8.70;99.90
53045;DHT22;38930;52.766;6.884;2022-10-31T05:05:27;8.70;99.90
53045;DHT22;38930;52.766;6.884;2022-10-31T05:07:52;8.60;99.90
53045;DHT22;38930;52.766;6.884;2022-10-31T05:10:21;8.60;99.90
53045;DHT22;38930;52.766;6.884;2022-10-31T05:12:49;8.60;99.90
53045;DHT22;38930;52.766;6.884;2022-10-31T05:15:16;8.60;99.90
53045;DHT22;38930;52.766;6.884;2022-10-31T05:17:42;8.60;99.90
53045;DHT22;38930;52.766;6.884;2022-10-31T05:20:09;8.60;99.90
53045;DHT22;38930;52.766;6.884;2022-10-31T05:22:34;8.60;99.90
53045;DHT22;38930;52.766;6.884;2022-10-31T05:25:00;9.00;99.90
53045;DHT22;38930;52.766;6.884;2022-10-31T05:27:26;9.00;99.90
53045;DHT22;38930;52.766;6.884;2022-10-31T05:29:51;8.40;99.90
53045;DHT22;38930;52.766;6.884;2022-10-31T05:32:17;8.30;99.90
53045;DHT22;38930;52.766;6.884;2022-10-31T05:34:42;8.30;99.90
53045;DHT22;38930;52.766;6.884;2022-10-31T05:37:08;8.40;99.90
53045;DHT22;38930;52.766;6.884;2022-10-31T05:39:33;8.40;99.90
53045;DHT22;38930;52.766;6.884;2022-10-31T05:41:59;8.40;99.90
53045;DHT22;38930;52.766;6.884;2022-10-31T05:46:50;8.40;99.90
53045;DHT22;38930;52.766;6.884;2022-10-31T05:49:16;8.40;99.90
53045;DHT22;38930;52.766;6.884;2022-10-31T05:51:43;8.40;99.90
53045;DHT22;38930;52.766;6.884;2022-10-31T05:54:08;8.40;99.90
53045;DHT22;38930;52.766;6.884;2022-10-31T05:56:34;8.30;99.90
53045;DHT22;38930;52.766;6.884;2022-10-31T05:58:59;8.50;99.90
53045;DHT22;38930;52.766;6.884;2022-10-31T06:01:25;8.20;99.90
53045;DHT22;38930;52.766;6.884;2022-10-31T06:03:50;8.60;99.90
53045;DHT22;38930;52.766;6.884;2022-10-31T06:06:16;8.10;99.90
53045;DHT22;38930;52.766;6.884;2022-10-31T06:08:42;8.00;99.90
53045;DHT22;38930;52.766;6.884;2022-10-31T06:11:07;8.00;99.90
53045;DHT22;38930;52.766;6.884;2022-10-31T06:13:33;8.00;99.90
53045;DHT22;38930;52.766;6.884;2022-10-31T06:15:58;8.10;99.90
53045;DHT22;38930;52.766;6.884;2022-10-31T06:18:24;8.10;99.90
53045;DHT22;38930;52.766;6.884;2022-10-31T06:20:50;8.10;99.90
53045;DHT22;38930;52.766;6.884;2022-10-31T06:23:15;8.20;99.90
53045;DHT22;38930;52.766;6.884;2022-10-31T06:25:41;8.20;99.90
53045;DHT22;38930;52.766;6.884;2022-10-31T06:28:06;8.10;99.90
53045;DHT22;38930;52.766;6.884;2022-10-31T06:30:32;8.20;99.90
53045;DHT22;38930;52.766;6.884;2022-10-31T06:33:07;8.10;99.90
53045;DHT22;38930;52.766;6.884;2022-10-31T06:35:33;8.10;99.90
53045;DHT22;38930;52.766;6.884;2022-10-31T06:37:58;8.10;99.90
53045;DHT22;38930;52.766;6.884;2022-10-31T06:40:24;8.40;99.90
53045;DHT22;38930;52.766;6.884;2022-10-31T06:43:00;8.00;99.90
53045;DHT22;38930;52.766;6.884;2022-10-31T06:45:26;8.30;99.90
53045;DHT22;38930;52.766;6.884;2022-10-31T06:47:53;8.00;99.90
53045;DHT22;38930;52.766;6.884;2022-10-31T06:50:19;8.00;99.90
53045;DHT22;38930;52.766;6.884;2022-10-31T06:52:51;8.40;99.90
53045;DHT22;38930;52.766;6.884;2022-10-31T06:55:16;8.10;99.90
53045;DHT22;38930;52.766;6.884;2022-10-31T06:57:42;8.10;99.90
53045;DHT22;38930;52.766;6.884;2022-10-31T07:00:08;8.10;99.90
53045;DHT22;38930;52.766;6.884;2022-10-31T07:02:33;8.10;99.90
53045;DHT22;38930;52.766;6.884;2022-10-31T07:04:59;8.10;99.90
53045;DHT22;38930;52.766;6.884;2022-10-31T07:07:25;8.10;99.90
53045;DHT22;38930;52.766;6.884;2022-10-31T07:09:50;8.00;99.90
53045;DHT22;38930;52.766;6.884;2022-10-31T07:12:16;8.00;99.90
53045;DHT22;38930;52.766;6.884;2022-10-31T07:14:42;8.00;99.90
53045;DHT22;38930;52.766;6.884;2022-10-31T07:17:07;8.00;99.90
53045;DHT22;38930;52.766;6.884;2022-10-31T07:19:33;8.00;99.90
53045;DHT22;38930;52.766;6.884;2022-10-31T07:21:58;8.00;99.90
53045;DHT22;38930;52.766;6.884;2022-10-31T07:24:24;8.00;99.90
53045;DHT22;38930;52.766;6.884;2022-10-31T07:26:50;8.00;99.90
53045;DHT22;38930;52.766;6.884;2022-10-31T07:29:15;8.00;99.90
53045;DHT22;38930;52.766;6.884;2022-10-31T07:31:41;8.00;99.90
53045;DHT22;38930;52.766;6.884;2022-10-31T07:34:06;8.10;99.90
53045;DHT22;38930;52.766;6.884;2022-10-31T07:36:32;8.10;99.90
53045;DHT22;38930;52.766;6.884;2022-10-31T07:38:57;8.10;99.90
53045;DHT22;38930;52.766;6.884;2022-10-31T07:41:24;8.20;99.90
53045;DHT22;38930;52.766;6.884;2022-10-31T07:43:49;8.20;99.90
53045;DHT22;38930;52.766;6.884;2022-10-31T07:46:15;8.30;99.90
53045;DHT22;38930;52.766;6.884;2022-10-31T07:48:41;8.30;99.90
53045;DHT22;38930;52.766;6.884;2022-10-31T07:51:06;8.30;99.90
53045;DHT22;38930;52.766;6.884;2022-10-31T07:53:32;8.40;99.90
53045;DHT22;38930;52.766;6.884;2022-10-31T07:55:57;8.50;99.90
53045;DHT22;38930;52.766;6.884;2022-10-31T07:58:23;8.60;99.90
53045;DHT22;38930;52.766;6.884;2022-10-31T08:00:50;8.70;99.90
53045;DHT22;38930;52.766;6.884;2022-10-31T08:03:17;9.30;99.90
53045;DHT22;38930;52.766;6.884;2022-10-31T08:05:44;8.90;99.90
53045;DHT22;38930;52.766;6.884;2022-10-31T08:08:11;9.00;99.90
53045;DHT22;38930;52.766;6.884;2022-10-31T08:10:37;9.20;99.90
53045;DHT22;38930;52.766;6.884;2022-10-31T08:13:05;9.40;99.90
53045;DHT22;38930;52.766;6.884;2022-10-31T08:15:31;9.50;99.90
53045;DHT22;38930;52.766;6.884;2022-10-31T08:17:57;9.60;99.90
53045;DHT22;38930;52.766;6.884;2022-10-31T08:20:23;9.70;99.90
53045;DHT22;38930;52.766;6.884;2022-10-31T08:22:59;10.10;99.90
53045;DHT22;38930;52.766;6.884;2022-10-31T08:25:27;9.90;99.90
53045;DHT22;38930;52.766;6.884;2022-10-31T08:27:54;10.50;99.90
53045;DHT22;38930;52.766;6.884;2022-10-31T08:30:20;10.10;99.90
53045;DHT22;38930;52.766;6.884;2022-10-31T08:32:47;10.10;99.90
53045;DHT22;38930;52.766;6.884;2022-10-31T08:35:13;10.20;99.90
53045;DHT22;38930;52.766;6.884;2022-10-31T08:37:38;10.30;99.90
53045;DHT22;38930;52.766;6.884;2022-10-31T08:40:05;10.60;99.90
53045;DHT22;38930;52.766;6.884;2022-10-31T08:42:32;10.50;99.90
53045;DHT22;38930;52.766;6.884;2022-10-31T08:44:57;10.60;99.90
53045;DHT22;38930;52.766;6.884;2022-10-31T08:47:23;10.70;99.90
53045;DHT22;38930;52.766;6.884;2022-10-31T08:49:49;11.10;99.90
53045;DHT22;38930;52.766;6.884;2022-10-31T08:52:14;11.00;99.90
53045;DHT22;38930;52.766;6.884;2022-10-31T08:54:40;11.10;99.90
53045;DHT22;38930;52.766;6.884;2022-10-31T08:57:06;11.30;99.90
53045;DHT22;38930;52.766;6.884;2022-10-31T08:59:32;11.40;99.90
53045;DHT22;38930;52.766;6.884;2022-10-31T09:01:57;11.50;99.90
53045;DHT22;38930;52.766;6.884;2022-10-31T09:04:23;11.60;99.90
53045;DHT22;38930;52.766;6.884;2022-10-31T09:06:48;11.70;99.90
53045;DHT22;38930;52.766;6.884;2022-10-31T09:09:14;11.80;99.90
53045;DHT22;38930;52.766;6.884;2022-10-31T09:11:39;11.90;99.90
53045;DHT22;38930;52.766;6.884;2022-10-31T09:14:05;11.80;99.90
53045;DHT22;38930;52.766;6.884;2022-10-31T09:16:31;12.00;99.90
53045;DHT22;38930;52.766;6.884;2022-10-31T09:18:56;12.20;99.90
53045;DHT22;38930;52.766;6.884;2022-10-31T09:21:22;12.20;99.90
53045;DHT22;38930;52.766;6.884;2022-10-31T09:23:47;12.20;99.90
53045;DHT22;38930;52.766;6.884;2022-10-31T09:26:13;12.30;99.90
53045;DHT22;38930;52.766;6.884;2022-10-31T09:28:39;12.10;99.90
53045;DHT22;38930;52.766;6.884;2022-10-31T09:31:04;12.20;99.90
53045;DHT22;38930;52.766;6.884;2022-10-31T09:33:30;12.40;99.90
53045;DHT22;38930;52.766;6.884;2022-10-31T09:35:58;12.50;99.90
53045;DHT22;38930;52.766;6.884;2022-10-31T09:38:23;12.50;99.90
53045;DHT22;38930;52.766;6.884;2022-10-31T09:41:01;12.50;99.90
53045;DHT22;38930;52.766;6.884;2022-10-31T09:49:10;12.60;99.90
53045;DHT22;38930;52.766;6.884;2022-10-31T09:51:48;12.60;99.90
53045;DHT22;38930;52.766;6.884;2022-10-31T09:54:20;12.70;99.90
53045;DHT22;38930;52.766;6.884;2022-10-31T09:56:46;12.80;99.90
53045;DHT22;38930;52.766;6.884;2022-10-31T09:59:37;12.90;99.90
53045;DHT22;38930;52.766;6.884;2022-10-31T10:02:10;12.90;99.90
53045;DHT22;38930;52.766;6.884;2022-10-31T10:07:41;13.00;99.90
53045;DHT22;38930;52.766;6.884;2022-10-31T10:16:19;13.20;99.90
53045;DHT22;38930;52.766;6.884;2022-10-31T10:21:32;13.30;99.90
53045;DHT22;38930;52.766;6.884;2022-10-31T10:24:12;13.30;99.90
53045;DHT22;38930;52.766;6.884;2022-10-31T10:26:46;13.40;99.90
53045;DHT22;38930;52.766;6.884;2022-10-31T10:29:39;13.50;99.90
53045;DHT22;38930;52.766;6.884;2022-10-31T10:32:13;13.50;99.90
53045;DHT22;38930;52.766;6.884;2022-10-31T10:34:48;13.60;99.90
53045;DHT22;38930;52.766;6.884;2022-10-31T10:37:44;13.60;99.90
53045;DHT22;38930;52.766;6.884;2022-10-31T10:40:19;14.00;99.90
53045;DHT22;38930;52.766;6.884;2022-10-31T10:43:19;13.70;99.90
53045;DHT22;38930;52.766;6.884;2022-10-31T10:48:50;13.80;99.90
53045;DHT22;38930;52.766;6.884;2022-10-31T10:54:33;13.80;99.90
53045;DHT22;38930;52.766;6.884;2022-10-31T10:57:38;13.90;99.90
53045;DHT22;38930;52.766;6.884;2022-10-31T11:00:20;13.90;99.90
53045;DHT22;38930;52.766;6.884;2022-10-31T11:02:46;14.00;99.90
53045;DHT22;38930;52.766;6.884;2022-10-31T11:05:22;14.10;99.90
53045;DHT22;38930;52.766;6.884;2022-10-31T11:07:48;14.10;99.90
53045;DHT22;38930;52.766;6.884;2022-10-31T11:10:15;14.20;99.90
53045;DHT22;38930;52.766;6.884;2022-10-31T11:12:43;14.20;99.90
53045;DHT22;38930;52.766;6.884;2022-10-31T11:15:23;14.20;99.90
53045;DHT22;38930;52.766;6.884;2022-10-31T11:17:51;14.30;99.90
53045;DHT22;38930;52.766;6.884;2022-10-31T11:22:45;14.40;99.90
53045;DHT22;38930;52.766;6.884;2022-10-31T11:25:21;14.40;99.90
53045;DHT22;38930;52.766;6.884;2022-10-31T11:27:47;14.40;99.90
53045;DHT22;38930;52.766;6.884;2022-10-31T11:30:13;14.40;99.90
53045;DHT22;38930;52.766;6.884;2022-10-31T11:32:49;14.50;99.90
53045;DHT22;38930;52.766;6.884;2022-10-31T11:35:21;14.50;99.90
53045;DHT22;38930;52.766;6.884;2022-10-31T11:37:50;14.40;99.90
53045;DHT22;38930;52.766;6.884;2022-10-31T11:40:24;14.50;99.90
53045;DHT22;38930;52.766;6.884;2022-10-31T11:42:52;14.70;99.90
53045;DHT22;38930;52.766;6.884;2022-10-31T11:45:33;14.50;99.90
53045;DHT22;38930;52.766;6.884;2022-10-31T11:48:01;14.60;99.90
53045;DHT22;38930;52.766;6.884;2022-10-31T11:50:40;14.60;99.90
53045;DHT22;38930;52.766;6.884;2022-10-31T11:53:17;14.70;99.90
53045;DHT22;38930;52.766;6.884;2022-10-31T11:55:45;14.70;99.90
53045;DHT22;38930;52.766;6.884;2022-10-31T11:58:22;14.80;99.90
53045;DHT22;38930;52.766;6.884;2022-10-31T12:00:53;14.90;99.90
53045;DHT22;38930;52.766;6.884;2022-10-31T12:08:43;15.00;99.90
53045;DHT22;38930;52.766;6.884;2022-10-31T12:14:05;15.00;99.90
53045;DHT22;38930;52.766;6.884;2022-10-31T12:19:38;15.00;99.90
53045;DHT22;38930;52.766;6.884;2022-10-31T12:22:17;15.10;99.90
53045;DHT22;38930;52.766;6.884;2022-10-31T12:30:26;15.20;99.90
53045;DHT22;38930;52.766;6.884;2022-10-31T12:45:07;15.50;99.90
53045;DHT22;38930;52.766;6.884;2022-10-31T12:47:31;15.60;99.90
53045;DHT22;38930;52.766;6.884;2022-10-31T12:53:30;15.90;99.90
53045;DHT22;38930;52.766;6.884;2022-10-31T12:56:12;16.00;99.90
53045;DHT22;38930;52.766;6.884;2022-10-31T12:58:49;16.00;99.90
53045;DHT22;38930;52.766;6.884;2022-10-31T13:01:35;16.00;99.90
53045;DHT22;38930;52.766;6.884;2022-10-31T13:06:58;16.00;99.90
53045;DHT22;38930;52.766;6.884;2022-10-31T13:09:39;16.00;99.90
53045;DHT22;38930;52.766;6.884;2022-10-31T13:12:12;16.10;99.90
53045;DHT22;38930;52.766;6.884;2022-10-31T13:15:00;16.00;99.90
53045;DHT22;38930;52.766;6.884;2022-10-31T13:17:38;16.00;99.90
53045;DHT22;38930;52.766;6.884;2022-10-31T13:20:25;16.10;99.90
53045;DHT22;38930;52.766;6.884;2022-10-31T13:23:14;15.90;99.90
53045;DHT22;38930;52.766;6.884;2022-10-31T13:25:46;15.90;99.90
53045;DHT22;38930;52.766;6.884;2022-10-31T13:28:40;16.00;99.90
53045;DHT22;38930;52.766;6.884;2022-10-31T13:31:08;15.80;99.90
53045;DHT22;38930;52.766;6.884;2022-10-31T13:44:29;15.80;99.90
53045;DHT22;38930;52.766;6.884;2022-10-31T13:46:58;15.80;99.90
53045;DHT22;38930;52.766;6.884;2022-10-31T13:54:47;15.70;99.90
53045;DHT22;38930;52.766;6.884;2022-10-31T13:59:53;15.60;99.90
53045;DHT22;38930;52.766;6.884;2022-10-31T14:02:29;15.60;99.90
53045;DHT22;38930;52.766;6.884;2022-10-31T14:05:04;15.50;99.90
53045;DHT22;38930;52.766;6.884;2022-10-31T14:07:31;15.50;99.90
53045;DHT22;38930;52.766;6.884;2022-10-31T14:10:05;15.80;99.90
53045;DHT22;38930;52.766;6.884;2022-10-31T14:12:40;15.40;99.90
53045;DHT22;38930;52.766;6.884;2022-10-31T14:18:06;15.50;99.90
53045;DHT22;38930;52.766;6.884;2022-10-31T14:20:36;15.50;99.90
53045;DHT22;38930;52.766;6.884;2022-10-31T14:28:34;15.40;99.90
53045;DHT22;38930;52.766;6.884;2022-10-31T14:31:01;15.40;99.90
53045;DHT22;38930;52.766;6.884;2022-10-31T14:33:29;15.40;99.90
53045;DHT22;38930;52.766;6.884;2022-10-31T14:36:02;15.30;99.90
53045;DHT22;38930;52.766;6.884;2022-10-31T14:38:41;15.30;99.90
53045;DHT22;38930;52.766;6.884;2022-10-31T14:41:28;15.30;99.90
53045;DHT22;38930;52.766;6.884;2022-10-31T14:44:18;15.20;99.90
53045;DHT22;38930;52.766;6.884;2022-10-31T14:47:02;15.20;99.90
53045;DHT22;38930;52.766;6.884;2022-10-31T14:52:24;15.20;99.90
53045;DHT22;38930;52.766;6.884;2022-10-31T14:54:55;15.20;99.90
53045;DHT22;38930;52.766;6.884;2022-10-31T14:57:26;15.10;99.90
53045;DHT22;38930;52.766;6.884;2022-10-31T15:00:17;15.10;99.90
53045;DHT22;38930;52.766;6.884;2022-10-31T15:02:53;15.10;99.90
53045;DHT22;38930;52.766;6.884;2022-10-31T15:05:21;15.00;99.90
53045;DHT22;38930;52.766;6.884;2022-10-31T15:07:54;15.00;99.90
53045;DHT22;38930;52.766;6.884;2022-10-31T15:10:24;15.00;99.90
53045;DHT22;38930;52.766;6.884;2022-10-31T15:12:50;15.00;99.90
53045;DHT22;38930;52.766;6.884;2022-10-31T15:15:22;15.00;99.90
53045;DHT22;38930;52.766;6.884;2022-10-31T15:17:54;14.90;99.90
53045;DHT22;38930;52.766;6.884;2022-10-31T15:20:22;14.80;99.90
53045;DHT22;38930;52.766;6.884;2022-10-31T15:22:49;14.90;99.90
53045;DHT22;38930;52.766;6.884;2022-10-31T15:25:25;14.80;99.90
53045;DHT22;38930;52.766;6.884;2022-10-31T15:27:52;14.70;99.90
53045;DHT22;38930;52.766;6.884;2022-10-31T15:30:21;14.70;99.90
53045;DHT22;38930;52.766;6.884;2022-10-31T15:32:47;14.70;99.90
53045;DHT22;38930;52.766;6.884;2022-10-31T15:35:22;14.60;99.90
53045;DHT22;38930;52.766;6.884;2022-10-31T15:37:49;14.60;99.90
53045;DHT22;38930;52.766;6.884;2022-10-31T15:40:16;14.60;99.90
53045;DHT22;38930;52.766;6.884;2022-10-31T15:42:45;14.70;99.90
53045;DHT22;38930;52.766;6.884;2022-10-31T15:45:18;14.50;99.90
53045;DHT22;38930;52.766;6.884;2022-10-31T15:50:30;14.40;99.90
53045;DHT22;38930;52.766;6.884;2022-10-31T15:52:56;14.50;99.90
53045;DHT22;38930;52.766;6.884;2022-10-31T15:55:25;14.40;99.90
53045;DHT22;38930;52.766;6.884;2022-10-31T15:57:56;14.40;99.90
53045;DHT22;38930;52.766;6.884;2022-10-31T16:03:00;14.30;99.90
53045;DHT22;38930;52.766;6.884;2022-10-31T16:05:35;14.20;99.90
53045;DHT22;38930;52.766;6.884;2022-10-31T16:08:01;14.20;99.90
53045;DHT22;38930;52.766;6.884;2022-10-31T16:10:27;14.20;99.90
53045;DHT22;38930;52.766;6.884;2022-10-31T16:12:53;14.10;99.90
53045;DHT22;38930;52.766;6.884;2022-10-31T16:15:20;14.00;99.90
53045;DHT22;38930;52.766;6.884;2022-10-31T16:17:50;13.80;99.90
53045;DHT22;38930;52.766;6.884;2022-10-31T16:20:23;14.10;99.90
53045;DHT22;38930;52.766;6.884;2022-10-31T16:22:51;14.10;99.90
53045;DHT22;38930;52.766;6.884;2022-10-31T16:25:27;14.00;99.90
53045;DHT22;38930;52.766;6.884;2022-10-31T16:27:54;14.00;99.90
53045;DHT22;38930;52.766;6.884;2022-10-31T16:30:37;14.00;99.90
53045;DHT22;38930;52.766;6.884;2022-10-31T16:33:33;14.30;99.90
53045;DHT22;38930;52.766;6.884;2022-10-31T16:38:55;13.90;99.90
53045;DHT22;38930;52.766;6.884;2022-10-31T16:41:21;13.90;99.90
53045;DHT22;38930;52.766;6.884;2022-10-31T16:43:48;13.90;99.90
53045;DHT22;38930;52.766;6.884;2022-10-31T16:46:24;13.90;99.90
53045;DHT22;38930;52.766;6.884;2022-10-31T16:48:50;13.90;99.90
53045;DHT22;38930;52.766;6.884;2022-10-31T16:51:16;13.90;99.90
53045;DHT22;38930;52.766;6.884;2022-10-31T16:53:42;13.90;99.90
53045;DHT22;38930;52.766;6.884;2022-10-31T16:56:18;14.10;99.90
53045;DHT22;38930;52.766;6.884;2022-10-31T16:58:44;13.90;99.90
53045;DHT22;38930;52.766;6.884;2022-10-31T17:01:11;13.90;99.90
53045;DHT22;38930;52.766;6.884;2022-10-31T17:03:38;13.90;99.90
53045;DHT22;38930;52.766;6.884;2022-10-31T17:06:04;13.90;99.90
53045;DHT22;38930;52.766;6.884;2022-10-31T17:08:29;13.90;99.90
53045;DHT22;38930;52.766;6.884;2022-10-31T17:10:56;14.30;99.90
53045;DHT22;38930;52.766;6.884;2022-10-31T17:13:25;13.90;99.90
53045;DHT22;38930;52.766;6.884;2022-10-31T17:15:54;14.10;99.90
53045;DHT22;38930;52.766;6.884;2022-10-31T17:18:20;13.90;99.90
53045;DHT22;38930;52.766;6.884;2022-10-31T17:20:47;13.90;99.90
53045;DHT22;38930;52.766;6.884;2022-10-31T17:23:14;13.90;99.90
53045;DHT22;38930;52.766;6.884;2022-10-31T17:25:41;13.90;99.90
53045;DHT22;38930;52.766;6.884;2022-10-31T17:28:10;14.00;99.90
53045;DHT22;38930;52.766;6.884;2022-10-31T17:30:37;14.40;99.90
53045;DHT22;38930;52.766;6.884;2022-10-31T17:33:02;14.00;99.90
53045;DHT22;38930;52.766;6.884;2022-10-31T17:35:28;14.00;99.90
53045;DHT22;38930;52.766;6.884;2022-10-31T17:37:54;14.00;99.90
53045;DHT22;38930;52.766;6.884;2022-10-31T17:40:21;13.90;99.90
53045;DHT22;38930;52.766;6.884;2022-10-31T17:42:54;14.00;99.90
53045;DHT22;38930;52.766;6.884;2022-10-31T17:45:21;14.00;99.90
53045;DHT22;38930;52.766;6.884;2022-10-31T17:47:48;14.00;99.90
53045;DHT22;38930;52.766;6.884;2022-10-31T17:50:16;14.00;99.90
53045;DHT22;38930;52.766;6.884;2022-10-31T17:52:42;14.00;99.90
53045;DHT22;38930;52.766;6.884;2022-10-31T17:55:08;14.00;99.90